Mol, Belgium
Current Conditions -  °F | °C
As of 3:25 PM on Wednesday 22 Oct 2014 (Local Time) from EBDT Reporting Station
Scattered Clouds Scattered Clouds  
Wind Chill: 52°   Ceiling: Unl
Heat Index: 52°   Visibility: 6mi
Dew Point: 45°   Wind: 15mph
Humidity: 76%   Direction: 310°NW
Pressure: 30.15"   Gusts: NA
Location:  51.19°N, 5.12°E
Report Text: EBDT 221325Z 31013KT 9999 FEW020 SCT040 11/07 Q1021 BLU BLU TEMPO WHT
Loading
Personal Weather Stations






























Interactive Weather Map
Tropical Storm Tracking
New forecast layout! Learn more

10-Day Weather Forecast

Advertisements
Track Severe Weather on mobile